LJPZ/POW METAR and TAF weather

Enter ICAO airport designator
Station Type Date Time Source
LJPZ METAR 2019/04/18 15:00 UTC NOAA

LJPZ 181500Z 25009KT 9999 FEW050 BKN090 18/05 Q1024


Station Type Date Time Source
LJPZ Decoded METAR 2019/04/18 15:00 UTC NOAA

Portoroz, Slovenia (LJPZ) 45-31N 013-34E
Apr 18, 2019 - 11:00 AM EDT / 2019.04.18 1500 UTC
Wind: from the WSW (250 degrees) at 10 MPH (9 KT):0
Visibility: greater than 7 mile(s):0
Sky conditions: mostly cloudy
Temperature: 64 F (18 C)
Dew Point: 41 F (5 C)
Relative Humidity: 42%
Pressure (altimeter): 30.24 in. Hg (1024 hPa)
ob: LJPZ 181500Z 25009KT 9999 FEW050 BKN090 18/05 Q1024
cycle: 15

Station Type Date Time Source
LJPZ TAF 2008/06/02 05:30 UTC NOAA

TAF TAF LJPZ 020530Z 021615 VRB02KT 6000 NSC
BECMG 0911 30005KT 9999 FEW040

Example: see airport list